CU-0033 weather

Campechuela Airport
Granma, Cuba

Public forecast

Using degrees Celsius for public forecast. Weather courtesy of forecast.io.

Closest aviation weather report (METAR) to Campechuela Airport

Report is more than 6 hours old.

Closest report is Sierra Maestra Airport, 12.4 nm (23.0 km) ENE. Retrieved 2019/10/13 12:00 UTC (10 days ago):

MUMZ 131200Z AUTO 04006KT 24/23 Q1014

Closest aviation forecast (TAF) to Campechuela Airport

Forecast is more than 12 hours old.

Closest forecast is Sierra Maestra Airport, 12.4 nm (23.0 km) ENE. Retrieved 2019/02/11 12:12 UTC (8 months ago):

TAF COR MUMZ 111100Z 1112/1124 05006KT 9000 FEW020 BECMG 1115/1117 07012KT SCT020